Time;durP1;ratioP1;P1;durP2;ratioP2;P2;SDS_P1;SDS_P2;PMS_P1;PMS_P2;Temp;Humidity;BMP_temperature;BMP_pressure;BME280_temperature;BME280_humidity;BME280_pressure;Samples;Min_cycle;Max_cycle;Signal;HPM_P1;HPM_P2
2022/09/05 00:02:00;;;;;;;3.83;2.00;;;19.70;92.00;;;;;;5069315;28;20554;-71
2022/09/05 00:04:33;;;;;;;6.03;2.20;;;19.60;91.90;;;;;;5070603;28;20067;-71
2022/09/05 00:07:05;;;;;;;4.22;2.20;;;19.60;92.10;;;;;;5054340;28;20044;-70
2022/09/05 00:09:36;;;;;;;3.75;2.03;;;19.60;92.00;;;;;;5070948;28;20087;-70
2022/09/05 00:12:05;;;;;;;4.32;2.15;;;19.50;92.20;;;;;;5068944;28;20052;-70
2022/09/05 00:15:04;;;;;;;5.97;2.13;;;19.50;92.10;;;;;;5070883;28;20037;-71
2022/09/05 00:17:57;;;;;;;6.70;2.40;;;19.50;92.50;;;;;;5052275;28;20061;-71
2022/09/05 00:20:44;;;;;;;6.30;2.22;;;19.50;92.40;;;;;;5054112;28;20124;-70
2022/09/05 00:23:47;;;;;;;5.00;2.30;;;19.50;92.60;;;;;;5069025;28;20056;-71
2022/09/05 00:26:34;;;;;;;4.60;2.40;;;19.40;92.60;;;;;;5070928;28;20072;-71
2022/09/05 00:29:21;;;;;;;11.80;2.35;;;19.40;92.80;;;;;;5054058;28;20060;-71
2022/09/05 00:32:03;;;;;;;11.95;2.63;;;19.30;92.60;;;;;;5073138;28;20845;-70
2022/09/05 00:34:51;;;;;;;3.17;2.00;;;19.30;92.70;;;;;;5072417;28;20036;-70
2022/09/05 00:37:31;;;;;;;6.30;2.35;;;19.30;92.80;;;;;;5073322;28;20074;-71
2022/09/05 00:40:11;;;;;;;3.58;2.40;;;19.30;93.00;;;;;;5071907;28;20051;-70
2022/09/05 00:42:37;;;;;;;6.18;2.42;;;19.20;92.80;;;;;;5072770;28;20052;-70
2022/09/05 00:45:08;;;;;;;6.72;3.30;;;19.20;92.60;;;;;;5071541;28;20044;-71
2022/09/05 00:47:54;;;;;;;7.88;2.40;;;19.20;92.70;;;;;;5072897;28;20453;-71
2022/09/05 00:50:26;;;;;;;3.13;2.08;;;19.20;93.00;;;;;;5072693;28;20438;-71
2022/09/05 00:53:01;;;;;;;6.38;2.67;;;19.10;92.90;;;;;;5071611;28;20055;-71
2022/09/05 00:55:51;;;;;;;5.10;2.30;;;19.10;93.00;;;;;;5072544;28;20100;-70
2022/09/05 00:58:30;;;;;;;8.45;2.38;;;19.10;93.20;;;;;;5072450;28;20063;-71
2022/09/05 01:00:58;;;;;;;4.82;2.55;;;19.00;93.10;;;;;;5072518;28;20231;-70
2022/09/05 01:03:35;;;;;;;4.78;2.53;;;19.00;93.10;;;;;;5072699;28;20040;-71
2022/09/05 01:06:14;;;;;;;5.65;2.67;;;18.90;93.20;;;;;;5072253;28;20476;-70
2022/09/05 01:09:03;;;;;;;6.82;2.40;;;18.90;93.20;;;;;;5071032;28;20090;-71
2022/09/05 01:11:47;;;;;;;4.20;2.55;;;18.90;93.50;;;;;;5072499;28;20155;-70
2022/09/05 01:14:35;;;;;;;7.20;2.72;;;18.90;93.40;;;;;;5071181;28;20067;-70
2022/09/05 01:17:07;;;;;;;7.07;2.40;;;18.90;93.60;;;;;;5072350;28;20048;-70
2022/09/05 01:20:07;;;;;;;5.20;2.45;;;18.80;93.30;;;;;;5071072;28;20060;-71
2022/09/05 01:22:32;;;;;;;6.78;2.78;;;18.80;93.80;;;;;;5071297;28;20087;-71
2022/09/05 01:25:21;;;;;;;4.40;3.17;;;18.80;93.60;;;;;;5070848;28;20087;-70
2022/09/05 01:28:11;;;;;;;5.90;2.58;;;18.80;93.60;;;;;;5020430;28;20064;-71
2022/09/05 01:30:49;;;;;;;4.68;2.50;;;18.70;93.80;;;;;;5049347;28;20249;-70
2022/09/05 01:33:48;;;;;;;5.22;3.25;;;18.70;93.90;;;;;;5049617;28;20061;-70
2022/09/05 01:36:34;;;;;;;5.18;2.75;;;18.60;94.00;;;;;;5032594;28;20044;-71
2022/09/05 01:39:11;;;;;;;10.75;2.92;;;18.60;94.20;;;;;;5032690;28;20052;-70
2022/09/05 01:42:03;;;;;;;5.13;2.88;;;18.60;93.90;;;;;;5049414;28;20055;-71
2022/09/05 01:44:46;;;;;;;4.75;2.78;;;18.50;94.10;;;;;;5049095;28;20048;-70
2022/09/05 01:47:39;;;;;;;4.38;2.92;;;18.50;94.20;;;;;;5048532;28;20512;-70
2022/09/05 01:50:23;;;;;;;5.00;2.65;;;18.50;94.40;;;;;;5048845;28;20056;-70
2022/09/05 01:52:56;;;;;;;5.47;3.10;;;18.40;94.60;;;;;;5032227;28;20532;-71
2022/09/05 01:55:40;;;;;;;8.93;2.90;;;18.40;94.30;;;;;;5048804;28;20045;-71
2022/09/05 01:58:24;;;;;;;6.32;2.55;;;18.40;94.40;;;;;;5028982;28;20090;-71
2022/09/05 02:01:13;;;;;;;5.45;2.72;;;18.30;94.50;;;;;;5034853;28;20535;-70
2022/09/05 02:04:13;;;;;;;5.43;3.00;;;18.30;94.50;;;;;;5047892;28;20048;-70
2022/09/05 02:07:00;;;;;;;7.18;3.88;;;18.30;94.80;;;;;;5057416;28;20053;-72
2022/09/05 02:09:59;;;;;;;6.32;2.85;;;18.20;94.40;;;;;;5028492;28;20045;-70
2022/09/05 02:12:40;;;;;;;4.68;3.08;;;18.20;94.60;;;;;;5040481;28;20064;-71
2022/09/05 02:15:17;;;;;;;6.82;3.20;;;18.20;94.60;;;;;;5031838;28;20183;-71
2022/09/05 02:17:42;;;;;;;5.28;3.10;;;18.10;94.60;;;;;;5048079;28;20108;-72
2022/09/05 02:20:28;;;;;;;5.28;3.35;;;18.10;94.60;;;;;;5048380;28;20526;-70
2022/09/05 02:23:22;;;;;;;8.05;3.03;;;18.00;95.00;;;;;;5048422;28;20048;-71
2022/09/05 02:26:15;;;;;;;7.35;3.22;;;18.00;95.00;;;;;;5012056;28;20142;-71
2022/09/05 02:28:49;;;;;;;4.82;3.25;;;18.00;95.20;;;;;;5042752;28;20068;-70
2022/09/05 02:31:32;;;;;;;6.75;3.30;;;17.90;95.10;;;;;;5048210;28;20053;-71
2022/09/05 02:34:29;;;;;;;8.82;3.42;;;17.90;95.00;;;;;;5047906;28;20053;-71
2022/09/05 02:37:20;;;;;;;5.50;3.40;;;17.90;95.30;;;;;;4967870;28;20130;-71
2022/09/05 02:40:09;;;;;;;8.68;3.72;;;17.80;95.30;;;;;;4968792;28;20051;-71
2022/09/05 02:42:52;;;;;;;5.68;3.35;;;17.80;95.30;;;;;;4970578;28;20054;-71
2022/09/05 02:45:25;;;;;;;8.50;3.65;;;17.80;95.60;;;;;;5008750;28;20146;-70
2022/09/05 02:48:13;;;;;;;6.40;3.50;;;17.70;95.30;;;;;;5003483;28;20532;-72
2022/09/05 02:50:42;;;;;;;5.18;3.28;;;17.70;95.50;;;;;;4988318;28;20050;-71
2022/09/05 02:53:12;;;;;;;6.07;3.65;;;17.60;95.50;;;;;;4989014;28;20093;-71
2022/09/05 02:56:02;;;;;;;6.47;3.35;;;17.60;95.50;;;;;;4988682;28;20058;-70
2022/09/05 02:58:36;;;;;;;6.15;3.50;;;17.60;95.80;;;;;;4989828;28;20054;-71
2022/09/05 03:01:27;;;;;;;8.45;4.00;;;17.50;95.70;;;;;;4972250;28;20064;-71
2022/09/05 03:04:07;;;;;;;9.02;4.00;;;17.50;95.80;;;;;;4988518;28;20050;-71
2022/09/05 03:06:50;;;;;;;6.85;3.75;;;17.50;95.90;;;;;;4993932;28;20050;-71
2022/09/05 03:09:25;;;;;;;6.55;3.78;;;17.40;96.10;;;;;;5005998;28;20181;-71
2022/09/05 03:12:05;;;;;;;6.88;3.70;;;17.40;95.90;;;;;;5008059;28;20520;-71
2022/09/05 03:15:09;;;;;;;8.75;4.05;;;17.40;96.00;;;;;;5056820;28;20071;-71
2022/09/05 03:18:00;;;;;;;6.93;3.90;;;17.30;96.30;;;;;;5070016;28;20116;-71
2022/09/05 03:20:43;;;;;;;8.70;3.67;;;17.30;96.40;;;;;;5068001;28;20047;-70
2022/09/05 03:23:46;;;;;;;11.10;4.20;;;17.30;96.50;;;;;;5071736;28;20692;-70
2022/09/05 03:26:17;;;;;;;8.48;4.20;;;17.20;96.60;;;;;;5074253;28;20049;-70
2022/09/05 03:28:59;;;;;;;7.18;3.90;;;17.20;96.50;;;;;;5072456;28;20091;-70
2022/09/05 03:31:39;;;;;;;7.13;4.30;;;17.20;96.60;;;;;;5073739;28;20056;-70
2022/09/05 03:34:14;;;;;;;6.45;3.65;;;17.10;96.50;;;;;;5074118;28;20051;-70
2022/09/05 03:36:59;;;;;;;7.88;4.50;;;17.10;96.60;;;;;;5073210;28;20123;-70
2022/09/05 03:39:43;;;;;;;12.65;5.28;;;17.00;96.90;;;;;;5072283;28;20082;-71
2022/09/05 03:42:46;;;;;;;8.15;4.00;;;17.00;96.90;;;;;;5055432;28;20088;-70
2022/09/05 03:45:30;;;;;;;7.30;4.25;;;17.00;96.90;;;;;;5073896;28;20453;-71
2022/09/05 03:48:02;;;;;;;6.88;4.47;;;16.90;96.90;;;;;;5073639;28;20084;-70
2022/09/05 03:50:44;;;;;;;6.00;4.70;;;16.90;96.90;;;;;;5072931;28;20138;-71
2022/09/05 03:53:18;;;;;;;9.43;4.55;;;16.90;97.00;;;;;;5071225;28;20160;-70
2022/09/05 03:55:50;;;;;;;7.47;4.78;;;16.90;97.10;;;;;;5073657;28;20147;-70
2022/09/05 03:58:51;;;;;;;6.50;4.97;;;16.80;97.10;;;;;;5073424;28;20052;-71
2022/09/05 04:01:23;;;;;;;6.38;4.28;;;16.80;97.40;;;;;;5073106;28;20037;-70
2022/09/05 04:03:58;;;;;;;8.07;4.57;;;16.70;97.20;;;;;;5073375;28;20145;-70
2022/09/05 04:06:38;;;;;;;6.38;4.55;;;16.80;97.20;;;;;;5071973;28;20059;-71
2022/09/05 04:09:28;;;;;;;7.40;4.68;;;16.70;97.50;;;;;;5072968;28;20052;-71
2022/09/05 04:11:59;;;;;;;7.35;4.68;;;16.70;97.50;;;;;;5071444;28;20178;-71
2022/09/05 04:14:52;;;;;;;5.85;4.45;;;16.60;97.40;;;;;;5063718;28;20078;-71
2022/09/05 04:17:28;;;;;;;20.27;5.28;;;16.60;97.80;;;;;;5071868;28;20044;-71
2022/09/05 04:20:06;;;;;;;9.55;4.82;;;16.60;97.60;;;;;;5073017;28;20091;-71
2022/09/05 04:22:49;;;;;;;7.35;4.50;;;16.60;97.80;;;;;;5072859;28;20044;-71
2022/09/05 04:25:23;;;;;;;10.07;5.32;;;16.50;98.00;;;;;;5064990;28;20391;-71
2022/09/05 04:28:28;;;;;;;6.75;4.82;;;16.40;98.00;;;;;;5071700;28;20057;-70
2022/09/05 04:31:28;;;;;;;8.85;5.88;;;16.50;98.50;;;;;;5072925;28;20438;-70
2022/09/05 04:34:27;;;;;;;8.65;4.80;;;16.40;98.40;;;;;;5071505;28;20045;-70
2022/09/05 04:37:07;;;;;;;8.23;4.72;;;16.40;98.30;;;;;;5072847;28;21641;-71
2022/09/05 04:39:34;;;;;;;7.18;4.70;;;16.40;98.30;;;;;;5071053;28;20079;-70
2022/09/05 04:42:18;;;;;;;6.13;5.05;;;16.30;98.20;;;;;;5072526;28;20543;-71
2022/09/05 04:44:52;;;;;;;8.45;5.18;;;16.30;98.40;;;;;;5072401;28;20051;-71
2022/09/05 04:47:34;;;;;;;9.10;5.22;;;16.30;98.50;;;;;;5072932;28;20384;-71
2022/09/05 04:50:13;;;;;;;8.98;5.70;;;16.30;98.80;;;;;;5071280;28;20052;-71
2022/09/05 04:52:58;;;;;;;8.02;5.53;;;16.30;98.80;;;;;;5072336;28;20045;-71
2022/09/05 04:55:31;;;;;;;7.18;4.88;;;16.30;98.80;;;;;;5071843;28;20135;-71
2022/09/05 04:58:06;;;;;;;6.75;5.13;;;16.20;98.90;;;;;;5070908;28;20094;-71
2022/09/05 05:00:35;;;;;;;10.98;5.43;;;16.30;99.00;;;;;;5072709;28;20455;-71
2022/09/05 05:03:16;;;;;;;7.47;5.05;;;16.20;98.90;;;;;;5070791;28;20542;-70
2022/09/05 05:05:47;;;;;;;11.68;5.47;;;16.20;99.50;;;;;;5071947;28;20048;-71
2022/09/05 05:08:29;;;;;;;10.38;5.57;;;16.20;99.30;;;;;;5070901;28;20117;-72
2022/09/05 05:11:09;;;;;;;10.98;5.55;;;16.20;99.60;;;;;;5071805;28;20517;-71
2022/09/05 05:13:56;;;;;;;7.25;5.30;;;16.10;99.60;;;;;;5072035;28;20049;-70
2022/09/05 05:16:32;;;;;;;10.32;5.65;;;16.20;99.90;;;;;;5071896;28;20033;-71
2022/09/05 05:19:07;;;;;;;9.25;5.35;;;16.20;99.70;;;;;;5071986;28;20052;-71
2022/09/05 05:21:32;;;;;;;8.10;5.90;;;16.20;99.80;;;;;;5071043;28;20404;-71
2022/09/05 05:24:12;;;;;;;6.68;5.03;;;16.20;99.90;;;;;;5070611;28;20044;-70
2022/09/05 05:26:51;;;;;;;7.53;5.40;;;16.20;99.90;;;;;;5071293;28;20048;-71
2022/09/05 05:29:37;;;;;;;7.55;5.38;;;16.20;99.90;;;;;;5070192;28;20037;-70
2022/09/05 05:32:04;;;;;;;8.07;5.32;;;16.20;99.90;;;;;;5070745;28;20078;-71
2022/09/05 05:34:53;;;;;;;7.80;5.28;;;16.20;99.90;;;;;;5071830;28;20036;-71
2022/09/05 05:37:34;;;;;;;8.98;5.47;;;16.20;99.90;;;;;;5071190;28;20098;-71
2022/09/05 05:40:17;;;;;;;7.15;5.63;;;16.20;99.90;;;;;;5070208;28;20123;-72
2022/09/05 05:42:44;;;;;;;13.80;6.03;;;16.20;99.90;;;;;;5071186;28;20102;-71
2022/09/05 05:45:32;;;;;;;8.52;5.30;;;16.20;99.90;;;;;;5071447;28;20056;-71
2022/09/05 05:48:05;;;;;;;6.60;5.25;;;16.20;99.90;;;;;;5070882;28;20544;-72
2022/09/05 05:51:10;;;;;;;9.38;5.53;;;16.20;99.90;;;;;;5069728;28;20056;-72
2022/09/05 05:53:41;;;;;;;7.63;5.55;;;16.30;99.90;;;;;;5069683;28;20053;-72
2022/09/05 05:56:36;;;;;;;7.75;5.97;;;16.30;99.90;;;;;;5069816;28;20100;-71
2022/09/05 05:59:25;;;;;;;9.43;5.28;;;16.30;99.90;;;;;;5030768;28;20106;-72
2022/09/05 06:01:57;;;;;;;8.38;5.63;;;16.40;99.90;;;;;;5031748;28;20083;-71
2022/09/05 06:04:31;;;;;;;6.85;5.22;;;16.40;99.90;;;;;;5048577;28;20440;-71
2022/09/05 06:07:29;;;;;;;10.68;6.00;;;16.40;99.90;;;;;;5048532;28;20052;-72
2022/09/05 06:10:23;;;;;;;8.77;5.57;;;16.50;99.90;;;;;;5046983;28;20861;-71
2022/09/05 06:12:52;;;;;;;9.85;5.35;;;16.50;99.90;;;;;;5031582;28;20053;-72
2022/09/05 06:15:39;;;;;;;7.28;5.85;;;16.60;99.90;;;;;;5047994;28;20420;-72
2022/09/05 06:18:19;;;;;;;6.50;4.95;;;16.60;99.90;;;;;;5048344;28;20098;-72
2022/09/05 06:21:12;;;;;;;9.40;5.65;;;16.70;99.90;;;;;;5031301;28;20131;-76
2022/09/05 06:24:15;;;;;;;7.05;6.05;;;16.70;99.90;;;;;;5047675;28;20053;-71
2022/09/05 06:27:01;;;;;;;9.57;5.05;;;16.80;99.90;;;;;;5047799;28;20055;-71
2022/09/05 06:29:58;;;;;;;8.32;5.70;;;16.90;99.90;;;;;;5030186;28;20056;-71
2022/09/05 06:32:29;;;;;;;9.43;5.60;;;17.00;99.90;;;;;;5047647;28;20049;-72
2022/09/05 06:35:25;;;;;;;9.43;5.95;;;17.00;99.90;;;;;;5035969;28;20057;-72
2022/09/05 06:38:08;;;;;;;10.40;5.82;;;17.10;99.90;;;;;;5070377;28;20391;-72
2022/09/05 06:41:00;;;;;;;8.70;6.00;;;17.10;99.90;;;;;;5068850;28;20052;-72
2022/09/05 06:43:31;;;;;;;9.68;5.82;;;17.30;99.90;;;;;;5069543;28;20045;-73
2022/09/05 06:46:22;;;;;;;12.27;6.07;;;17.30;99.90;;;;;;5069986;28;20495;-72
2022/09/05 06:49:19;;;;;;;14.25;5.93;;;17.40;99.90;;;;;;5069188;28;20151;-72
2022/09/05 06:52:02;;;;;;;7.55;5.80;;;17.50;99.90;;;;;;5070421;28;20053;-73
2022/09/05 06:54:33;;;;;;;10.63;5.55;;;17.50;99.90;;;;;;5070547;28;20048;-72
2022/09/05 06:57:04;;;;;;;8.10;5.65;;;17.60;99.90;;;;;;5068817;28;20048;-74
2022/09/05 07:00:21;;;;;;;8.85;6.10;;;17.70;99.90;;;;;;5070258;28;20048;-72
2022/09/05 07:03:22;;;;;;;10.82;6.10;;;17.70;99.90;;;;;;5068835;28;20052;-73
2022/09/05 07:06:10;;;;;;;7.25;5.38;;;17.80;99.90;;;;;;5069930;28;20094;-71
2022/09/05 07:08:52;;;;;;;10.38;5.82;;;17.90;99.90;;;;;;5068845;28;20074;-72
2022/09/05 07:11:27;;;;;;;9.88;6.30;;;18.00;99.90;;;;;;5068812;28;20063;-71
2022/09/05 07:14:15;;;;;;;10.07;5.78;;;18.10;99.90;;;;;;5069412;28;20194;-72
2022/09/05 07:17:17;;;;;;;7.28;5.90;;;18.30;99.90;;;;;;5068113;28;20084;-75
2022/09/05 07:19:57;;;;;;;9.98;6.47;;;18.40;99.90;;;;;;5054775;28;20127;-73
2022/09/05 07:22:27;;;;;;;13.27;6.65;;;18.40;99.90;;;;;;5069138;28;20048;-72
2022/09/05 07:24:55;;;;;;;9.75;5.88;;;18.50;99.90;;;;;;5070391;28;20562;-73
2022/09/05 07:27:32;;;;;;;7.78;5.75;;;18.70;99.90;;;;;;5068453;28;20044;-72
2022/09/05 07:29:58;;;;;;;7.43;5.60;;;18.80;99.90;;;;;;5069940;28;20252;-72
2022/09/05 07:32:25;;;;;;;10.23;6.13;;;19.00;99.90;;;;;;5068159;28;20056;-71
2022/09/05 07:34:52;;;;;;;10.20;5.80;;;19.10;99.90;;;;;;5068658;28;20383;-74
2022/09/05 07:37:27;;;;;;;7.22;5.60;;;19.20;99.90;;;;;;5069599;28;20086;-72
2022/09/05 07:39:59;;;;;;;9.50;5.63;;;19.30;99.90;;;;;;5068511;28;20048;-71
2022/09/05 07:42:35;;;;;;;10.65;5.30;;;19.50;99.90;;;;;;5069928;28;20059;-72
2022/09/05 07:45:19;;;;;;;8.57;5.70;;;19.60;99.90;;;;;;5069970;28;20491;-72
2022/09/05 07:48:20;;;;;;;9.30;5.53;;;19.80;99.90;;;;;;5068041;28;20052;-72
2022/09/05 07:50:57;;;;;;;7.45;5.10;;;19.90;99.90;;;;;;5067244;28;20056;-72
2022/09/05 07:53:24;;;;;;;9.77;5.50;;;20.10;99.90;;;;;;5070031;28;20114;-71
2022/09/05 07:55:56;;;;;;;7.32;5.40;;;20.20;99.90;;;;;;5069961;28;20051;-71
2022/09/05 07:58:48;;;;;;;7.47;4.90;;;20.40;99.90;;;;;;5070352;28;20036;-71
2022/09/05 08:01:16;;;;;;;8.20;4.70;;;20.50;99.80;;;;;;5069968;28;20411;-72
2022/09/05 08:03:45;;;;;;;7.63;5.00;;;20.70;99.80;;;;;;5067843;28;20119;-71
2022/09/05 08:06:23;;;;;;;6.57;4.72;;;20.90;99.50;;;;;;5068888;28;20522;-71
2022/09/05 08:09:14;;;;;;;9.60;5.15;;;21.20;99.30;;;;;;5069614;28;20052;-75
2022/09/05 08:11:41;;;;;;;12.55;4.90;;;21.40;99.10;;;;;;5072990;28;20052;-70
2022/09/05 08:14:34;;;;;;;7.28;4.63;;;21.60;99.10;;;;;;5071960;28;20056;-72
2022/09/05 08:16:59;;;;;;;6.32;4.93;;;21.80;98.90;;;;;;5013879;28;20148;-70
2022/09/05 08:19:54;;;;;;;12.20;5.20;;;22.00;98.60;;;;;;5030254;28;20183;-72
2022/09/05 08:22:24;;;;;;;10.10;4.90;;;22.10;98.10;;;;;;4974989;28;20061;-72
2022/09/05 08:25:22;;;;;;;8.18;4.72;;;22.30;98.10;;;;;;4989735;28;20056;-72
2022/09/05 08:28:05;;;;;;;8.25;5.20;;;22.50;97.90;;;;;;4981986;28;20070;-74
2022/09/05 08:30:43;;;;;;;11.18;4.55;;;22.70;97.40;;;;;;4991160;28;20047;-72
2022/09/05 08:33:22;;;;;;;7.85;4.70;;;22.90;97.40;;;;;;4987888;28;20407;-74
2022/09/05 08:35:54;;;;;;;10.68;4.45;;;23.10;97.20;;;;;;4990840;28;20066;-72
2022/09/05 08:38:20;;;;;;;8.15;4.47;;;23.30;97.10;;;;;;4974925;28;20438;-72
2022/09/05 08:41:06;;;;;;;8.25;5.10;;;23.60;97.00;;;;;;4990946;28;20184;-71
2022/09/05 08:43:54;;;;;;;5.45;4.28;;;23.80;96.50;;;;;;4990505;28;20136;-72
2022/09/05 08:46:51;;;;;;;6.57;4.60;;;23.90;96.60;;;;;;4971322;28;20101;-72
2022/09/05 08:49:38;;;;;;;5.68;4.53;;;24.20;96.40;;;;;;4950633;28;20054;-71
2022/09/05 08:52:22;;;;;;;6.35;4.30;;;24.40;95.50;;;;;;4970860;28;20153;-71
2022/09/05 08:55:15;;;;;;;6.55;3.92;;;24.60;95.60;;;;;;4955362;28;20062;-72
2022/09/05 08:57:59;;;;;;;7.97;3.90;;;25.00;95.60;;;;;;4953938;28;20059;-72
2022/09/05 09:00:54;;;;;;;7.07;4.53;;;25.20;95.00;;;;;;4975655;28;20089;-72
2022/09/05 09:03:53;;;;;;;8.07;4.07;;;25.40;95.20;;;;;;4999659;28;20058;-72
2022/09/05 09:06:25;;;;;;;7.70;3.75;;;25.60;94.80;;;;;;4994097;28;20204;-72
2022/09/05 09:09:12;;;;;;;10.75;4.40;;;25.80;94.80;;;;;;5008744;28;20428;-73
2022/09/05 09:11:53;;;;;;;8.93;4.75;;;26.00;94.50;;;;;;4982161;28;20213;-73
2022/09/05 09:14:43;;;;;;;8.80;4.53;;;26.30;94.00;;;;;;5011681;28;20065;-73
2022/09/05 09:17:40;;;;;;;7.75;4.00;;;26.40;93.40;;;;;;5009770;28;20205;-73
2022/09/05 09:20:44;;;;;;;9.95;3.92;;;26.70;92.80;;;;;;4992890;28;20113;-74
2022/09/05 09:23:19;;;;;;;8.85;3.30;;;26.80;93.30;;;;;;5034440;28;20053;-73
2022/09/05 09:26:10;;;;;;;6.57;4.15;;;27.10;93.60;;;;;;5071810;28;20053;-71
2022/09/05 09:28:44;;;;;;;6.05;3.72;;;27.30;93.50;;;;;;5071811;28;20044;-71
2022/09/05 09:31:24;;;;;;;6.05;3.25;;;27.50;92.80;;;;;;5072079;28;20044;-70
2022/09/05 09:34:03;;;;;;;5.40;2.72;;;27.70;92.80;;;;;;5070450;28;20051;-70
2022/09/05 09:36:37;;;;;;;8.30;3.67;;;27.80;92.90;;;;;;5070568;28;20049;-70
2022/09/05 09:39:26;;;;;;;6.68;2.85;;;28.10;92.70;;;;;;5070981;28;20048;-71
2022/09/05 09:42:20;;;;;;;11.32;3.60;;;28.30;92.50;;;;;;5070884;28;20039;-71
2022/09/05 09:45:17;;;;;;;8.40;3.00;;;28.50;91.60;;;;;;5068637;28;20052;-71
2022/09/05 09:47:53;;;;;;;4.65;2.60;;;28.70;91.70;;;;;;5070950;28;20044;-72
2022/09/05 09:50:37;;;;;;;11.02;3.25;;;29.00;92.00;;;;;;5071177;28;20064;-73
2022/09/05 09:53:20;;;;;;;5.40;2.67;;;29.00;92.20;;;;;;5069626;28;20594;-82
2022/09/05 09:56:05;;;;;;;6.80;3.00;;;29.20;91.90;;;;;;5070834;28;20106;-72
2022/09/05 09:58:48;;;;;;;9.77;3.67;;;29.20;91.10;;;;;;5069508;28;20056;-71
2022/09/05 10:01:37;;;;;;;4.47;3.05;;;29.30;90.70;;;;;;5071367;28;20055;-72
2022/09/05 10:04:14;;;;;;;7.38;2.97;;;29.30;89.20;;;;;;5069621;28;20093;-73
2022/09/05 10:06:49;;;;;;;4.18;2.50;;;29.30;90.80;;;;;;5069757;28;20110;-71
2022/09/05 10:09:37;;;;;;;8.90;2.97;;;29.40;90.20;;;;;;5069521;28;20575;-74
2022/09/05 10:12:21;;;;;;;3.63;2.13;;;29.50;89.90;;;;;;5070726;28;20045;-76
2022/09/05 10:15:00;;;;;;;;;;;29.60;90.60;;;;;;5053226;28;20114;-77
2022/09/05 10:17:57;;;;;;;7.03;2.58;;;29.80;90.20;;;;;;5071068;28;19969;-76
2022/09/05 10:20:40;;;;;;;5.28;2.20;;;29.80;88.60;;;;;;5070314;28;20040;-71
2022/09/05 10:23:35;;;;;;;6.68;2.55;;;30.00;89.40;;;;;;5070189;28;20044;-76
2022/09/05 10:26:38;;;;;;;5.93;2.15;;;30.10;89.30;;;;;;5070238;28;20056;-74
2022/09/05 10:29:12;;;;;;;11.05;2.95;;;30.20;88.40;;;;;;5070823;28;20052;-78
2022/09/05 10:31:56;;;;;;;9.60;2.63;;;30.50;89.60;;;;;;5068537;28;20066;-77
2022/09/05 10:34:23;;;;;;;6.85;2.25;;;30.50;87.90;;;;;;5070727;28;20574;-78
2022/09/05 10:37:01;;;;;;;6.85;1.90;;;30.70;88.30;;;;;;5068757;28;20052;-80
2022/09/05 10:39:31;;;;;;;7.40;1.95;;;30.90;87.20;;;;;;5068896;28;20424;-77
2022/09/05 10:42:15;;;;;;;5.95;1.80;;;30.80;87.50;;;;;;5068752;28;20048;-79
2022/09/05 10:44:52;;;;;;;9.32;1.98;;;30.90;84.40;;;;;;5069292;28;20430;-80
2022/09/05 10:47:37;;;;;;;4.65;2.20;;;30.90;83.90;;;;;;5069051;28;20052;-81
2022/09/05 10:50:28;;;;;;;3.08;1.98;;;31.00;84.60;;;;;;5070037;28;20060;-79
2022/09/05 10:53:37;;;;;;;5.15;1.60;;;31.00;83.60;;;;;;5070486;28;20048;-78
2022/09/05 10:56:14;;;;;;;4.78;1.45;;;31.20;84.80;;;;;;5070474;28;20712;-79
2022/09/05 10:59:03;;;;;;;3.17;1.55;;;31.20;83.70;;;;;;5069821;28;20094;-80
2022/09/05 11:01:58;;;;;;;4.50;1.80;;;31.20;83.00;;;;;;5070276;28;20056;-79
2022/09/05 11:04:49;;;;;;;4.10;1.50;;;31.30;83.40;;;;;;5070193;28;20053;-84
2022/09/05 11:07:37;;;;;;;4.32;1.50;;;31.30;83.20;;;;;;5068834;28;20059;-81
2022/09/05 11:10:21;;;;;;;4.50;1.58;;;31.50;83.40;;;;;;5050244;28;20110;-77
2022/09/05 11:12:53;;;;;;;;;;;31.60;83.40;;;;;;5033978;28;20045;-80
2022/09/05 11:15:40;;;;;;;4.43;1.60;;;31.80;83.50;;;;;;5070100;28;20375;-82
2022/09/05 11:18:13;;;;;;;4.35;2.13;;;31.60;80.80;;;;;;5069989;28;20036;-77
2022/09/05 11:20:53;;;;;;;9.87;1.70;;;31.70;82.90;;;;;;5070735;28;20343;-81
2022/09/05 11:23:24;;;;;;;4.65;1.65;;;31.80;83.00;;;;;;5070078;28;20056;-79
2022/09/05 11:26:03;;;;;;;2.53;1.40;;;31.80;81.40;;;;;;5070207;28;20047;-78
2022/09/05 11:28:40;;;;;;;4.97;1.70;;;31.90;80.70;;;;;;5069585;28;20048;-76
2022/09/05 11:31:13;;;;;;;5.20;1.73;;;32.00;80.00;;;;;;5050031;28;20045;-81
2022/09/05 11:34:07;;;;;;;5.47;2.00;;;32.10;81.40;;;;;;5049957;28;20786;-81
2022/09/05 11:36:45;;;;;;;4.47;1.65;;;31.90;80.10;;;;;;5027253;28;20065;-80
2022/09/05 11:39:20;;;;;;;3.58;1.70;;;31.90;80.10;;;;;;5010784;28;20092;-76
2022/09/05 11:42:14;;;;;;;3.13;1.60;;;32.00;80.00;;;;;;5026946;28;20053;-75
2022/09/05 11:45:03;;;;;;;4.65;1.65;;;32.10;80.60;;;;;;5030607;28;20049;-77
2022/09/05 11:47:59;;;;;;;3.33;1.50;;;32.20;81.00;;;;;;5047791;28;20061;-76
2022/09/05 11:50:46;;;;;;;2.95;1.40;;;32.30;79.80;;;;;;5031079;28;20106;-78
2022/09/05 11:53:12;;;;;;;4.72;1.90;;;32.30;78.70;;;;;;5047587;28;20064;-83
2022/09/05 11:55:53;;;;;;;7.78;2.40;;;32.40;79.80;;;;;;5013716;28;20053;-81
2022/09/05 11:58:42;;;;;;;4.05;1.33;;;32.40;79.70;;;;;;5030975;28;20623;-80
2022/09/05 12:01:14;;;;;;;5.00;1.60;;;32.20;78.00;;;;;;5013947;28;20726;-80
2022/09/05 12:03:58;;;;;;;5.05;1.67;;;32.30;79.90;;;;;;5031343;28;20501;-80
2022/09/05 12:07:06;;;;;;;6.15;2.55;;;32.40;78.30;;;;;;5030643;28;20136;-78
2022/09/05 12:09:58;;;;;;;2.33;1.50;;;32.50;78.60;;;;;;4933473;29;20059;-77
2022/09/05 12:12:59;;;;;;;6.88;1.65;;;32.60;79.00;;;;;;4914647;29;20520;-77
2022/09/05 12:15:32;;;;;;;6.07;1.50;;;32.90;79.10;;;;;;4972769;28;20062;-79
2022/09/05 12:18:36;;;;;;;8.97;1.80;;;33.00;78.60;;;;;;4991462;28;20046;-79
2022/09/05 12:21:28;;;;;;;3.35;1.25;;;33.00;77.80;;;;;;4971465;28;20368;-81
2022/09/05 12:24:03;;;;;;;6.25;1.70;;;33.00;77.80;;;;;;4982760;28;20786;-81
2022/09/05 12:26:35;;;;;;;6.90;1.77;;;33.10;78.20;;;;;;4991357;28;20513;-79
2022/09/05 12:29:08;;;;;;;3.90;1.65;;;33.10;77.90;;;;;;4991328;28;20082;-81
2022/09/05 12:31:51;;;;;;;5.43;1.90;;;33.10;78.00;;;;;;4989367;28;20072;-80
2022/09/05 12:34:49;;;;;;;4.05;1.33;;;33.00;77.50;;;;;;4991555;28;20088;-76
2022/09/05 12:37:38;;;;;;;3.42;1.48;;;32.90;74.40;;;;;;4991559;28;20133;-76
2022/09/05 12:40:09;;;;;;;4.57;1.45;;;32.60;75.10;;;;;;4991045;28;20531;-77
2022/09/05 12:42:53;;;;;;;4.38;1.40;;;32.60;75.10;;;;;;4956511;28;20087;-76
2022/09/05 12:45:22;;;;;;;;;;;32.60;74.90;;;;;;5006165;28;20063;-76
2022/09/05 12:48:11;;;;;;;14.15;1.80;;;32.50;74.60;;;;;;5052621;28;19975;-76
2022/09/05 12:50:58;;;;;;;10.85;1.35;;;32.40;74.80;;;;;;5068049;28;20819;-75
2022/09/05 12:53:34;;;;;;;2.75;1.30;;;32.30;75.60;;;;;;5071114;28;20091;-77
2022/09/05 12:56:03;;;;;;;6.82;1.52;;;32.30;76.10;;;;;;5071758;28;20392;-76
2022/09/05 12:58:31;;;;;;;3.22;1.52;;;32.30;76.30;;;;;;5072422;28;20055;-74
2022/09/05 13:01:14;;;;;;;3.63;1.40;;;32.30;75.20;;;;;;5072256;28;20056;-77
2022/09/05 13:04:20;;;;;;;4.35;1.50;;;32.50;75.30;;;;;;5052281;28;20128;-74
2022/09/05 13:07:08;;;;;;;3.47;1.50;;;32.50;73.40;;;;;;5051370;28;20049;-71
2022/09/05 13:09:42;;;;;;;6.93;1.50;;;32.60;74.10;;;;;;5052174;28;20056;-70
2022/09/05 13:12:19;;;;;;;10.88;1.80;;;32.80;74.80;;;;;;5058163;28;20051;-74
2022/09/05 13:14:56;;;;;;;3.53;1.55;;;32.80;73.40;;;;;;5072189;28;20052;-74
2022/09/05 13:17:37;;;;;;;2.90;1.40;;;32.90;74.90;;;;;;5054064;28;20087;-77
2022/09/05 13:20:17;;;;;;;3.78;1.38;;;32.90;75.20;;;;;;5070380;28;20496;-77
2022/09/05 13:22:48;;;;;;;5.55;1.50;;;33.10;75.00;;;;;;5066530;28;20495;-75
2022/09/05 13:25:25;;;;;;;8.15;1.63;;;33.20;75.10;;;;;;5066530;28;20041;-72
2022/09/05 13:28:01;;;;;;;2.15;1.30;;;33.40;74.10;;;;;;5070692;28;20049;-72
2022/09/05 13:30:27;;;;;;;6.38;1.80;;;33.60;74.70;;;;;;5068875;28;20106;-71
2022/09/05 13:33:08;;;;;;;3.30;1.10;;;33.70;74.10;;;;;;5070774;28;20075;-71
2022/09/05 13:35:52;;;;;;;3.03;1.40;;;33.60;73.20;;;;;;5067863;28;20098;-73
2022/09/05 13:38:23;;;;;;;5.70;1.55;;;33.50;72.70;;;;;;5069058;28;20879;-73
2022/09/05 13:40:56;;;;;;;5.93;1.48;;;33.30;73.60;;;;;;5068726;28;20818;-72
2022/09/05 13:43:37;;;;;;;4.70;1.52;;;33.40;72.90;;;;;;5070119;28;20403;-72
2022/09/05 13:46:26;;;;;;;4.80;1.30;;;33.50;72.80;;;;;;5066549;28;20060;-78
2022/09/05 13:48:57;;;;;;;13.75;1.73;;;33.60;72.30;;;;;;5067308;28;20055;-73
2022/09/05 13:51:53;;;;;;;4.88;1.30;;;33.60;71.90;;;;;;5067743;28;20079;-73
2022/09/05 13:54:36;;;;;;;3.35;1.60;;;33.60;70.90;;;;;;5069673;28;20059;-73
2022/09/05 13:57:15;;;;;;;2.80;1.10;;;33.50;70.10;;;;;;5069698;28;20086;-73
2022/09/05 14:00:05;;;;;;;3.20;1.20;;;33.50;70.60;;;;;;5066068;28;20119;-73
2022/09/05 14:03:07;;;;;;;6.25;1.40;;;33.60;71.20;;;;;;5053132;28;20045;-73
2022/09/05 14:05:38;;;;;;;2.38;1.20;;;33.70;71.60;;;;;;5068747;28;20056;-73